sensor_id;sensor_type;location;lat;lon;timestamp;temperature;humidity
21255;DHT22;10785;50.674;17.954;2023-06-10T00:30:33;16.10;99.90
21255;DHT22;10785;50.674;17.954;2023-06-10T00:33:02;16.10;99.90
21255;DHT22;10785;50.674;17.954;2023-06-10T00:35:34;16.10;99.90
21255;DHT22;10785;50.674;17.954;2023-06-10T00:38:03;16.10;99.90
21255;DHT22;10785;50.674;17.954;2023-06-10T00:40:33;16.10;99.90
21255;DHT22;10785;50.674;17.954;2023-06-10T00:43:02;16.10;99.90
21255;DHT22;10785;50.674;17.954;2023-06-10T00:45:31;16.10;99.90
21255;DHT22;10785;50.674;17.954;2023-06-10T00:48:01;16.10;99.90
21255;DHT22;10785;50.674;17.954;2023-06-10T01:48:41;16.10;99.90
21255;DHT22;10785;50.674;17.954;2023-06-10T01:51:10;16.10;99.90
21255;DHT22;10785;50.674;17.954;2023-06-10T01:53:39;16.10;99.90
21255;DHT22;10785;50.674;17.954;2023-06-10T01:56:07;16.10;99.90
21255;DHT22;10785;50.674;17.954;2023-06-10T01:58:36;16.10;99.90
21255;DHT22;10785;50.674;17.954;2023-06-10T02:01:05;16.20;99.90
21255;DHT22;10785;50.674;17.954;2023-06-10T02:03:36;16.20;99.90
21255;DHT22;10785;50.674;17.954;2023-06-10T02:06:07;16.20;99.90
21255;DHT22;10785;50.674;17.954;2023-06-10T02:08:35;16.20;99.90
21255;DHT22;10785;50.674;17.954;2023-06-10T02:11:04;16.20;99.90
21255;DHT22;10785;50.674;17.954;2023-06-10T02:13:34;16.20;99.90
21255;DHT22;10785;50.674;17.954;2023-06-10T02:16:03;16.20;99.90
21255;DHT22;10785;50.674;17.954;2023-06-10T02:18:34;16.20;99.90
21255;DHT22;10785;50.674;17.954;2023-06-10T02:21:03;16.20;99.90
21255;DHT22;10785;50.674;17.954;2023-06-10T02:23:33;16.20;99.90
21255;DHT22;10785;50.674;17.954;2023-06-10T02:26:04;16.20;99.90
21255;DHT22;10785;50.674;17.954;2023-06-10T02:28:33;16.20;99.90
21255;DHT22;10785;50.674;17.954;2023-06-10T02:31:01;16.30;99.90
21255;DHT22;10785;50.674;17.954;2023-06-10T02:33:30;16.30;99.90
21255;DHT22;10785;50.674;17.954;2023-06-10T02:36:01;16.30;99.90
21255;DHT22;10785;50.674;17.954;2023-06-10T02:38:32;16.30;99.90
21255;DHT22;10785;50.674;17.954;2023-06-10T02:41:01;16.20;99.90
21255;DHT22;10785;50.674;17.954;2023-06-10T02:43:29;16.20;99.90
21255;DHT22;10785;50.674;17.954;2023-06-10T02:45:58;16.20;99.90
21255;DHT22;10785;50.674;17.954;2023-06-10T02:48:28;16.20;99.90
21255;DHT22;10785;50.674;17.954;2023-06-10T02:50:57;16.20;99.90
21255;DHT22;10785;50.674;17.954;2023-06-10T02:53:34;16.20;99.90
21255;DHT22;10785;50.674;17.954;2023-06-10T02:56:08;16.30;99.90
21255;DHT22;10785;50.674;17.954;2023-06-10T02:58:37;16.30;99.90
21255;DHT22;10785;50.674;17.954;2023-06-10T03:01:07;16.30;99.90
21255;DHT22;10785;50.674;17.954;2023-06-10T03:03:59;16.30;99.90
21255;DHT22;10785;50.674;17.954;2023-06-10T03:06:28;16.30;99.90
21255;DHT22;10785;50.674;17.954;2023-06-10T03:09:10;16.30;99.90
21255;DHT22;10785;50.674;17.954;2023-06-10T03:11:41;16.30;99.90
21255;DHT22;10785;50.674;17.954;2023-06-10T03:14:10;16.30;99.90
21255;DHT22;10785;50.674;17.954;2023-06-10T03:16:38;16.30;99.90
21255;DHT22;10785;50.674;17.954;2023-06-10T03:19:09;16.30;99.90
21255;DHT22;10785;50.674;17.954;2023-06-10T03:21:44;16.40;99.90
21255;DHT22;10785;50.674;17.954;2023-06-10T03:24:16;16.40;99.90
21255;DHT22;10785;50.674;17.954;2023-06-10T03:26:45;16.40;99.90
21255;DHT22;10785;50.674;17.954;2023-06-10T03:29:16;16.50;99.90
21255;DHT22;10785;50.674;17.954;2023-06-10T03:31:44;16.50;99.90
21255;DHT22;10785;50.674;17.954;2023-06-10T03:34:13;16.50;99.90
21255;DHT22;10785;50.674;17.954;2023-06-10T03:36:42;16.50;99.90
21255;DHT22;10785;50.674;17.954;2023-06-10T03:39:11;16.50;99.90
21255;DHT22;10785;50.674;17.954;2023-06-10T03:41:41;16.60;99.90
21255;DHT22;10785;50.674;17.954;2023-06-10T03:44:10;16.60;99.90
21255;DHT22;10785;50.674;17.954;2023-06-10T03:46:40;16.70;99.90
21255;DHT22;10785;50.674;17.954;2023-06-10T03:49:09;16.70;99.90
21255;DHT22;10785;50.674;17.954;2023-06-10T03:51:37;16.80;99.90
21255;DHT22;10785;50.674;17.954;2023-06-10T03:54:06;16.90;99.90
21255;DHT22;10785;50.674;17.954;2023-06-10T03:56:35;16.90;99.90
21255;DHT22;10785;50.674;17.954;2023-06-10T03:59:05;17.00;99.90
21255;DHT22;10785;50.674;17.954;2023-06-10T04:01:34;17.10;99.90
21255;DHT22;10785;50.674;17.954;2023-06-10T04:04:04;17.10;99.90
21255;DHT22;10785;50.674;17.954;2023-06-10T04:06:34;17.20;99.90
21255;DHT22;10785;50.674;17.954;2023-06-10T04:09:04;17.20;99.90
21255;DHT22;10785;50.674;17.954;2023-06-10T04:11:33;17.30;99.90
21255;DHT22;10785;50.674;17.954;2023-06-10T04:14:01;17.30;99.90
21255;DHT22;10785;50.674;17.954;2023-06-10T04:16:32;17.30;99.90
21255;DHT22;10785;50.674;17.954;2023-06-10T04:19:01;17.30;99.90
21255;DHT22;10785;50.674;17.954;2023-06-10T04:21:30;17.40;99.90
21255;DHT22;10785;50.674;17.954;2023-06-10T04:24:00;17.40;99.90
21255;DHT22;10785;50.674;17.954;2023-06-10T04:26:29;17.40;99.90
21255;DHT22;10785;50.674;17.954;2023-06-10T04:28:57;17.30;99.90
21255;DHT22;10785;50.674;17.954;2023-06-10T04:31:26;17.40;99.90
21255;DHT22;10785;50.674;17.954;2023-06-10T04:33:56;17.30;99.90
21255;DHT22;10785;50.674;17.954;2023-06-10T04:36:25;17.30;99.90
21255;DHT22;10785;50.674;17.954;2023-06-10T04:38:56;17.30;99.90
21255;DHT22;10785;50.674;17.954;2023-06-10T04:41:27;17.30;99.90
21255;DHT22;10785;50.674;17.954;2023-06-10T04:43:56;17.30;99.90
21255;DHT22;10785;50.674;17.954;2023-06-10T04:46:25;17.40;99.90
21255;DHT22;10785;50.674;17.954;2023-06-10T04:48:56;17.40;99.90
21255;DHT22;10785;50.674;17.954;2023-06-10T04:51:24;17.40;99.90
21255;DHT22;10785;50.674;17.954;2023-06-10T04:53:53;17.40;99.90
21255;DHT22;10785;50.674;17.954;2023-06-10T04:56:22;17.40;99.90
21255;DHT22;10785;50.674;17.954;2023-06-10T04:58:51;17.40;99.90
21255;DHT22;10785;50.674;17.954;2023-06-10T05:01:19;17.50;99.90
21255;DHT22;10785;50.674;17.954;2023-06-10T05:03:48;17.50;99.90
21255;DHT22;10785;50.674;17.954;2023-06-10T05:06:18;17.50;99.90
21255;DHT22;10785;50.674;17.954;2023-06-10T05:08:47;17.50;99.90
21255;DHT22;10785;50.674;17.954;2023-06-10T05:11:16;17.60;99.90
21255;DHT22;10785;50.674;17.954;2023-06-10T05:13:44;17.60;99.90
21255;DHT22;10785;50.674;17.954;2023-06-10T05:16:13;17.70;99.90
21255;DHT22;10785;50.674;17.954;2023-06-10T05:18:42;17.80;99.90
21255;DHT22;10785;50.674;17.954;2023-06-10T05:21:11;17.90;99.90
21255;DHT22;10785;50.674;17.954;2023-06-10T05:23:41;17.90;99.90
21255;DHT22;10785;50.674;17.954;2023-06-10T05:26:09;17.90;99.90
21255;DHT22;10785;50.674;17.954;2023-06-10T05:28:38;18.00;99.90
21255;DHT22;10785;50.674;17.954;2023-06-10T05:31:07;18.00;99.90
21255;DHT22;10785;50.674;17.954;2023-06-10T05:33:35;18.00;99.90
21255;DHT22;10785;50.674;17.954;2023-06-10T05:36:05;18.00;99.90
21255;DHT22;10785;50.674;17.954;2023-06-10T05:38:33;18.10;99.90
21255;DHT22;10785;50.674;17.954;2023-06-10T05:41:03;18.10;99.90
21255;DHT22;10785;50.674;17.954;2023-06-10T05:43:32;18.30;99.90
21255;DHT22;10785;50.674;17.954;2023-06-10T05:46:01;18.70;99.90
21255;DHT22;10785;50.674;17.954;2023-06-10T05:48:29;18.70;99.90
21255;DHT22;10785;50.674;17.954;2023-06-10T05:50:58;19.00;99.90
21255;DHT22;10785;50.674;17.954;2023-06-10T05:53:27;19.20;99.90
21255;DHT22;10785;50.674;17.954;2023-06-10T05:55:56;19.50;99.90
21255;DHT22;10785;50.674;17.954;2023-06-10T05:58:27;19.80;99.90
21255;DHT22;10785;50.674;17.954;2023-06-10T06:00:55;20.00;99.90
21255;DHT22;10785;50.674;17.954;2023-06-10T06:03:24;19.90;99.90
21255;DHT22;10785;50.674;17.954;2023-06-10T06:05:53;19.90;99.90
21255;DHT22;10785;50.674;17.954;2023-06-10T06:08:22;19.80;99.90
21255;DHT22;10785;50.674;17.954;2023-06-10T06:10:51;19.80;99.90
21255;DHT22;10785;50.674;17.954;2023-06-10T06:13:19;19.80;99.90
21255;DHT22;10785;50.674;17.954;2023-06-10T06:15:50;19.90;99.90
21255;DHT22;10785;50.674;17.954;2023-06-10T06:18:19;20.20;99.90
21255;DHT22;10785;50.674;17.954;2023-06-10T06:20:47;20.40;99.90
21255;DHT22;10785;50.674;17.954;2023-06-10T06:23:16;20.50;99.90
21255;DHT22;10785;50.674;17.954;2023-06-10T06:25:45;20.60;99.90
21255;DHT22;10785;50.674;17.954;2023-06-10T06:28:14;20.30;99.90
21255;DHT22;10785;50.674;17.954;2023-06-10T06:30:42;20.20;99.90
21255;DHT22;10785;50.674;17.954;2023-06-10T06:33:12;20.00;99.90
21255;DHT22;10785;50.674;17.954;2023-06-10T06:35:41;20.00;99.90
21255;DHT22;10785;50.674;17.954;2023-06-10T06:38:10;19.80;99.90
21255;DHT22;10785;50.674;17.954;2023-06-10T06:40:38;19.80;99.90
21255;DHT22;10785;50.674;17.954;2023-06-10T06:43:08;19.80;99.90
21255;DHT22;10785;50.674;17.954;2023-06-10T06:45:50;19.60;99.90
21255;DHT22;10785;50.674;17.954;2023-06-10T06:48:20;19.60;99.90
21255;DHT22;10785;50.674;17.954;2023-06-10T06:50:49;19.70;99.90
21255;DHT22;10785;50.674;17.954;2023-06-10T06:53:18;19.70;99.90
21255;DHT22;10785;50.674;17.954;2023-06-10T06:55:46;19.70;99.90
21255;DHT22;10785;50.674;17.954;2023-06-10T06:58:15;19.70;99.90
21255;DHT22;10785;50.674;17.954;2023-06-10T07:00:44;19.70;99.90
21255;DHT22;10785;50.674;17.954;2023-06-10T07:03:12;19.80;99.90
21255;DHT22;10785;50.674;17.954;2023-06-10T07:05:42;20.00;99.90
21255;DHT22;10785;50.674;17.954;2023-06-10T07:08:11;20.10;99.90
21255;DHT22;10785;50.674;17.954;2023-06-10T07:10:41;20.10;99.90
21255;DHT22;10785;50.674;17.954;2023-06-10T07:13:09;20.10;99.90
21255;DHT22;10785;50.674;17.954;2023-06-10T07:15:41;20.30;99.90
21255;DHT22;10785;50.674;17.954;2023-06-10T07:18:10;20.30;99.90
21255;DHT22;10785;50.674;17.954;2023-06-10T07:20:38;20.20;99.90
21255;DHT22;10785;50.674;17.954;2023-06-10T07:23:10;20.10;99.90
21255;DHT22;10785;50.674;17.954;2023-06-10T07:25:38;20.20;99.90
21255;DHT22;10785;50.674;17.954;2023-06-10T07:28:09;20.10;99.90
21255;DHT22;10785;50.674;17.954;2023-06-10T07:30:40;20.10;99.90
21255;DHT22;10785;50.674;17.954;2023-06-10T07:33:09;20.10;99.90
21255;DHT22;10785;50.674;17.954;2023-06-10T07:35:38;20.30;99.90
21255;DHT22;10785;50.674;17.954;2023-06-10T07:38:07;20.30;99.90
21255;DHT22;10785;50.674;17.954;2023-06-10T07:40:37;20.60;99.90
21255;DHT22;10785;50.674;17.954;2023-06-10T07:43:06;20.60;99.90
21255;DHT22;10785;50.674;17.954;2023-06-10T07:45:34;20.80;99.90
21255;DHT22;10785;50.674;17.954;2023-06-10T07:48:03;20.90;99.90
21255;DHT22;10785;50.674;17.954;2023-06-10T07:50:32;20.90;99.90
21255;DHT22;10785;50.674;17.954;2023-06-10T07:53:01;21.00;99.90
21255;DHT22;10785;50.674;17.954;2023-06-10T07:55:30;21.20;99.90
21255;DHT22;10785;50.674;17.954;2023-06-10T08:01:13;21.10;99.90
21255;DHT22;10785;50.674;17.954;2023-06-10T08:03:42;21.00;99.90
21255;DHT22;10785;50.674;17.954;2023-06-10T08:06:12;21.10;99.90
21255;DHT22;10785;50.674;17.954;2023-06-10T08:08:41;21.10;99.90
21255;DHT22;10785;50.674;17.954;2023-06-10T08:11:12;21.30;99.90
21255;DHT22;10785;50.674;17.954;2023-06-10T08:13:41;21.40;99.90
21255;DHT22;10785;50.674;17.954;2023-06-10T08:16:10;21.50;99.90
21255;DHT22;10785;50.674;17.954;2023-06-10T08:18:40;21.40;99.90
21255;DHT22;10785;50.674;17.954;2023-06-10T08:21:09;21.40;99.90
21255;DHT22;10785;50.674;17.954;2023-06-10T08:23:38;21.40;99.90
21255;DHT22;10785;50.674;17.954;2023-06-10T08:26:06;21.50;99.90
21255;DHT22;10785;50.674;17.954;2023-06-10T08:28:35;21.80;99.90
21255;DHT22;10785;50.674;17.954;2023-06-10T08:31:04;21.70;99.90
21255;DHT22;10785;50.674;17.954;2023-06-10T08:33:32;21.80;99.90
21255;DHT22;10785;50.674;17.954;2023-06-10T08:36:03;22.00;99.90
21255;DHT22;10785;50.674;17.954;2023-06-10T08:38:31;22.00;99.90
21255;DHT22;10785;50.674;17.954;2023-06-10T08:41:05;22.10;99.90
21255;DHT22;10785;50.674;17.954;2023-06-10T08:43:39;22.30;99.90
21255;DHT22;10785;50.674;17.954;2023-06-10T08:46:10;22.40;99.90
21255;DHT22;10785;50.674;17.954;2023-06-10T08:48:42;22.40;99.90
21255;DHT22;10785;50.674;17.954;2023-06-10T08:51:14;22.60;99.90
21255;DHT22;10785;50.674;17.954;2023-06-10T08:53:50;22.60;99.90
21255;DHT22;10785;50.674;17.954;2023-06-10T08:56:22;22.80;99.90
21255;DHT22;10785;50.674;17.954;2023-06-10T08:58:54;22.90;99.90
21255;DHT22;10785;50.674;17.954;2023-06-10T09:01:24;23.00;99.90
21255;DHT22;10785;50.674;17.954;2023-06-10T09:03:53;22.80;99.90
21255;DHT22;10785;50.674;17.954;2023-06-10T09:06:25;23.00;99.90
21255;DHT22;10785;50.674;17.954;2023-06-10T09:08:54;23.00;99.90
21255;DHT22;10785;50.674;17.954;2023-06-10T09:11:23;22.70;99.90
21255;DHT22;10785;50.674;17.954;2023-06-10T09:13:53;22.60;99.90
21255;DHT22;10785;50.674;17.954;2023-06-10T09:16:21;22.70;99.90
21255;DHT22;10785;50.674;17.954;2023-06-10T09:18:50;22.80;99.90
21255;DHT22;10785;50.674;17.954;2023-06-10T09:21:24;22.90;99.90
21255;DHT22;10785;50.674;17.954;2023-06-10T09:23:53;23.10;99.90
21255;DHT22;10785;50.674;17.954;2023-06-10T09:26:28;22.70;99.90
21255;DHT22;10785;50.674;17.954;2023-06-10T09:29:03;22.70;99.90
21255;DHT22;10785;50.674;17.954;2023-06-10T09:31:35;22.90;99.90
21255;DHT22;10785;50.674;17.954;2023-06-10T09:34:10;23.20;99.90
21255;DHT22;10785;50.674;17.954;2023-06-10T09:36:41;23.30;99.90
21255;DHT22;10785;50.674;17.954;2023-06-10T09:39:14;23.00;99.90
21255;DHT22;10785;50.674;17.954;2023-06-10T09:44:42;23.30;99.90
21255;DHT22;10785;50.674;17.954;2023-06-10T09:47:19;23.30;99.90
21255;DHT22;10785;50.674;17.954;2023-06-10T09:49:48;23.10;99.90
21255;DHT22;10785;50.674;17.954;2023-06-10T09:52:23;23.00;99.90
21255;DHT22;10785;50.674;17.954;2023-06-10T09:54:52;23.10;99.90
21255;DHT22;10785;50.674;17.954;2023-06-10T09:57:21;23.20;99.90
21255;DHT22;10785;50.674;17.954;2023-06-10T09:59:53;23.30;99.90
21255;DHT22;10785;50.674;17.954;2023-06-10T10:02:22;23.20;99.90
21255;DHT22;10785;50.674;17.954;2023-06-10T10:04:50;23.20;99.90
21255;DHT22;10785;50.674;17.954;2023-06-10T10:07:19;23.30;99.90
21255;DHT22;10785;50.674;17.954;2023-06-10T10:09:49;23.20;99.90
21255;DHT22;10785;50.674;17.954;2023-06-10T10:12:18;23.30;99.90
21255;DHT22;10785;50.674;17.954;2023-06-10T10:14:47;23.30;99.90
21255;DHT22;10785;50.674;17.954;2023-06-10T10:17:16;23.30;99.90
21255;DHT22;10785;50.674;17.954;2023-06-10T10:19:48;23.20;99.90
21255;DHT22;10785;50.674;17.954;2023-06-10T10:22:22;23.30;99.90
21255;DHT22;10785;50.674;17.954;2023-06-10T10:24:56;23.40;99.90
21255;DHT22;10785;50.674;17.954;2023-06-10T10:27:28;23.60;99.90
21255;DHT22;10785;50.674;17.954;2023-06-10T10:29:58;23.50;99.90
21255;DHT22;10785;50.674;17.954;2023-06-10T10:32:35;23.20;99.90
21255;DHT22;10785;50.674;17.954;2023-06-10T10:35:09;23.20;99.90
21255;DHT22;10785;50.674;17.954;2023-06-10T10:37:41;23.60;99.90
21255;DHT22;10785;50.674;17.954;2023-06-10T10:40:12;23.60;99.90
21255;DHT22;10785;50.674;17.954;2023-06-10T10:42:42;23.90;99.90
21255;DHT22;10785;50.674;17.954;2023-06-10T10:45:11;23.80;99.90
21255;DHT22;10785;50.674;17.954;2023-06-10T10:47:41;23.60;99.90
21255;DHT22;10785;50.674;17.954;2023-06-10T10:50:15;23.50;99.90
21255;DHT22;10785;50.674;17.954;2023-06-10T10:52:53;23.40;99.90
21255;DHT22;10785;50.674;17.954;2023-06-10T10:55:24;23.60;99.90
21255;DHT22;10785;50.674;17.954;2023-06-10T10:57:57;23.60;99.90
21255;DHT22;10785;50.674;17.954;2023-06-10T11:00:30;23.90;99.90
21255;DHT22;10785;50.674;17.954;2023-06-10T11:03:04;23.90;99.90
21255;DHT22;10785;50.674;17.954;2023-06-10T11:06:02;23.90;99.90
21255;DHT22;10785;50.674;17.954;2023-06-10T11:08:46;24.10;99.90
21255;DHT22;10785;50.674;17.954;2023-06-10T11:11:23;24.10;99.90
21255;DHT22;10785;50.674;17.954;2023-06-10T11:14:06;24.00;99.90
21255;DHT22;10785;50.674;17.954;2023-06-10T11:16:40;23.90;99.90
21255;DHT22;10785;50.674;17.954;2023-06-10T11:19:10;23.90;99.90
21255;DHT22;10785;50.674;17.954;2023-06-10T11:21:59;23.80;99.90
21255;DHT22;10785;50.674;17.954;2023-06-10T11:24:29;23.80;99.90
21255;DHT22;10785;50.674;17.954;2023-06-10T11:27:26;24.00;99.90
21255;DHT22;10785;50.674;17.954;2023-06-10T11:30:20;24.30;99.90
21255;DHT22;10785;50.674;17.954;2023-06-10T11:32:54;24.70;99.90
21255;DHT22;10785;50.674;17.954;2023-06-10T11:35:28;24.80;99.40
21255;DHT22;10785;50.674;17.954;2023-06-10T11:37:57;25.10;96.50
21255;DHT22;10785;50.674;17.954;2023-06-10T11:40:26;25.10;95.90
21255;DHT22;10785;50.674;17.954;2023-06-10T11:42:59;25.00;97.30
21255;DHT22;10785;50.674;17.954;2023-06-10T11:45:28;24.90;95.60
21255;DHT22;10785;50.674;17.954;2023-06-10T11:47:57;25.00;96.20
21255;DHT22;10785;50.674;17.954;2023-06-10T11:50:30;25.40;94.80
21255;DHT22;10785;50.674;17.954;2023-06-10T11:52:59;25.50;86.40
21255;DHT22;10785;50.674;17.954;2023-06-10T11:55:41;25.50;91.60
21255;DHT22;10785;50.674;17.954;2023-06-10T11:58:14;25.60;74.40
21255;DHT22;10785;50.674;17.954;2023-06-10T12:00:45;25.40;70.90
21255;DHT22;10785;50.674;17.954;2023-06-10T12:03:14;25.40;74.70
21255;DHT22;10785;50.674;17.954;2023-06-10T12:05:58;25.50;60.10
21255;DHT22;10785;50.674;17.954;2023-06-10T12:08:27;25.50;67.50
21255;DHT22;10785;50.674;17.954;2023-06-10T12:10:57;25.60;78.40
21255;DHT22;10785;50.674;17.954;2023-06-10T12:13:28;25.70;63.40
21255;DHT22;10785;50.674;17.954;2023-06-10T12:16:06;25.80;57.80
21255;DHT22;10785;50.674;17.954;2023-06-10T12:18:36;25.70;49.40
21255;DHT22;10785;50.674;17.954;2023-06-10T12:21:16;25.40;53.90
21255;DHT22;10785;50.674;17.954;2023-06-10T12:24:05;25.50;53.00
21255;DHT22;10785;50.674;17.954;2023-06-10T12:26:40;25.60;47.80
21255;DHT22;10785;50.674;17.954;2023-06-10T12:29:21;25.80;55.60
21255;DHT22;10785;50.674;17.954;2023-06-10T12:32:01;26.00;51.90
21255;DHT22;10785;50.674;17.954;2023-06-10T12:34:37;25.90;71.80
21255;DHT22;10785;50.674;17.954;2023-06-10T12:37:11;25.60;72.20
21255;DHT22;10785;50.674;17.954;2023-06-10T12:39:42;25.30;60.60
21255;DHT22;10785;50.674;17.954;2023-06-10T12:42:21;25.10;67.20
21255;DHT22;10785;50.674;17.954;2023-06-10T12:47:29;24.80;60.10
21255;DHT22;10785;50.674;17.954;2023-06-10T12:50:00;24.80;53.40
21255;DHT22;10785;50.674;17.954;2023-06-10T12:52:32;24.80;53.10
21255;DHT22;10785;50.674;17.954;2023-06-10T12:55:01;25.00;40.40
21255;DHT22;10785;50.674;17.954;2023-06-10T12:57:31;25.10;37.30
21255;DHT22;10785;50.674;17.954;2023-06-10T13:00:02;25.40;41.90
21255;DHT22;10785;50.674;17.954;2023-06-10T13:02:36;25.30;43.00
21255;DHT22;10785;50.674;17.954;2023-06-10T13:05:05;25.20;42.90
21255;DHT22;10785;50.674;17.954;2023-06-10T13:07:34;25.10;41.20
21255;DHT22;10785;50.674;17.954;2023-06-10T13:10:03;25.20;45.30
21255;DHT22;10785;50.674;17.954;2023-06-10T13:12:32;25.20;52.30
21255;DHT22;10785;50.674;17.954;2023-06-10T13:15:15;25.10;54.40
21255;DHT22;10785;50.674;17.954;2023-06-10T13:17:44;25.20;41.40
21255;DHT22;10785;50.674;17.954;2023-06-10T13:20:17;25.20;28.70
21255;DHT22;10785;50.674;17.954;2023-06-10T13:22:46;25.40;22.20
21255;DHT22;10785;50.674;17.954;2023-06-10T13:25:15;25.40;19.50
21255;DHT22;10785;50.674;17.954;2023-06-10T13:27:44;25.40;20.40
21255;DHT22;10785;50.674;17.954;2023-06-10T13:30:13;25.70;19.20
21255;DHT22;10785;50.674;17.954;2023-06-10T13:32:43;25.70;18.20
21255;DHT22;10785;50.674;17.954;2023-06-10T13:35:12;25.90;20.30
21255;DHT22;10785;50.674;17.954;2023-06-10T13:37:41;26.00;18.90
21255;DHT22;10785;50.674;17.954;2023-06-10T13:40:10;25.80;22.00
21255;DHT22;10785;50.674;17.954;2023-06-10T13:42:39;25.70;25.10
21255;DHT22;10785;50.674;17.954;2023-06-10T13:45:09;25.60;25.90
21255;DHT22;10785;50.674;17.954;2023-06-10T13:47:38;25.60;27.40
21255;DHT22;10785;50.674;17.954;2023-06-10T13:50:09;25.60;27.10
21255;DHT22;10785;50.674;17.954;2023-06-10T13:52:38;25.30;32.20
21255;DHT22;10785;50.674;17.954;2023-06-10T13:55:07;25.30;37.60
21255;DHT22;10785;50.674;17.954;2023-06-10T13:57:37;25.20;39.70
21255;DHT22;10785;50.674;17.954;2023-06-10T14:00:06;25.10;46.60
21255;DHT22;10785;50.674;17.954;2023-06-10T14:02:37;25.00;48.80
21255;DHT22;10785;50.674;17.954;2023-06-10T14:05:08;25.00;52.60
21255;DHT22;10785;50.674;17.954;2023-06-10T14:07:39;24.80;49.10
21255;DHT22;10785;50.674;17.954;2023-06-10T14:10:08;24.60;43.40
21255;DHT22;10785;50.674;17.954;2023-06-10T14:12:37;24.70;49.20
21255;DHT22;10785;50.674;17.954;2023-06-10T14:15:07;24.70;41.50
21255;DHT22;10785;50.674;17.954;2023-06-10T14:17:37;24.80;35.50
21255;DHT22;10785;50.674;17.954;2023-06-10T14:20:08;24.80;32.10
21255;DHT22;10785;50.674;17.954;2023-06-10T14:22:37;25.00;25.70
21255;DHT22;10785;50.674;17.954;2023-06-10T14:25:07;24.70;27.90
21255;DHT22;10785;50.674;17.954;2023-06-10T14:27:36;24.60;27.90
21255;DHT22;10785;50.674;17.954;2023-06-10T14:30:06;24.60;29.50
21255;DHT22;10785;50.674;17.954;2023-06-10T14:32:35;24.60;31.60
21255;DHT22;10785;50.674;17.954;2023-06-10T14:35:04;24.50;35.90
21255;DHT22;10785;50.674;17.954;2023-06-10T14:37:36;24.40;40.10
21255;DHT22;10785;50.674;17.954;2023-06-10T14:40:06;24.60;38.60
21255;DHT22;10785;50.674;17.954;2023-06-10T14:42:34;24.70;34.40
21255;DHT22;10785;50.674;17.954;2023-06-10T14:45:04;24.60;37.50
21255;DHT22;10785;50.674;17.954;2023-06-10T14:47:34;24.60;43.20
21255;DHT22;10785;50.674;17.954;2023-06-10T14:50:03;24.50;44.20
21255;DHT22;10785;50.674;17.954;2023-06-10T14:52:32;24.50;48.50
21255;DHT22;10785;50.674;17.954;2023-06-10T14:55:03;24.40;51.20
21255;DHT22;10785;50.674;17.954;2023-06-10T14:57:31;24.40;57.00
21255;DHT22;10785;50.674;17.954;2023-06-10T15:00:03;24.40;59.10
21255;DHT22;10785;50.674;17.954;2023-06-10T15:02:33;24.30;64.50
21255;DHT22;10785;50.674;17.954;2023-06-10T15:05:02;24.30;70.90
21255;DHT22;10785;50.674;17.954;2023-06-10T15:07:30;24.20;71.50
21255;DHT22;10785;50.674;17.954;2023-06-10T15:09:59;24.10;79.70
21255;DHT22;10785;50.674;17.954;2023-06-10T15:12:31;24.10;84.00
21255;DHT22;10785;50.674;17.954;2023-06-10T15:15:00;24.30;82.10
21255;DHT22;10785;50.674;17.954;2023-06-10T15:17:32;24.40;79.30
21255;DHT22;10785;50.674;17.954;2023-06-10T15:20:01;24.50;80.40
21255;DHT22;10785;50.674;17.954;2023-06-10T15:22:31;24.60;80.40
21255;DHT22;10785;50.674;17.954;2023-06-10T15:25:03;24.70;75.70
21255;DHT22;10785;50.674;17.954;2023-06-10T15:27:53;24.70;76.20
21255;DHT22;10785;50.674;17.954;2023-06-10T15:30:22;24.80;76.80
21255;DHT22;10785;50.674;17.954;2023-06-10T15:32:51;24.70;77.10
21255;DHT22;10785;50.674;17.954;2023-06-10T15:35:20;24.70;80.20
21255;DHT22;10785;50.674;17.954;2023-06-10T15:37:49;24.70;81.10
21255;DHT22;10785;50.674;17.954;2023-06-10T15:40:18;24.60;81.40
21255;DHT22;10785;50.674;17.954;2023-06-10T15:42:47;24.50;83.60
21255;DHT22;10785;50.674;17.954;2023-06-10T15:45:17;24.60;84.30
21255;DHT22;10785;50.674;17.954;2023-06-10T15:47:46;24.60;84.40
21255;DHT22;10785;50.674;17.954;2023-06-10T15:50:14;24.60;89.20
21255;DHT22;10785;50.674;17.954;2023-06-10T15:52:43;24.50;91.60
21255;DHT22;10785;50.674;17.954;2023-06-10T15:55:12;24.50;90.40
21255;DHT22;10785;50.674;17.954;2023-06-10T15:57:41;24.60;91.40
21255;DHT22;10785;50.674;17.954;2023-06-10T16:00:10;24.70;90.80
21255;DHT22;10785;50.674;17.954;2023-06-10T16:02:41;24.70;93.30
21255;DHT22;10785;50.674;17.954;2023-06-10T16:05:10;24.70;91.20
21255;DHT22;10785;50.674;17.954;2023-06-10T16:07:39;24.60;91.80
21255;DHT22;10785;50.674;17.954;2023-06-10T16:10:08;24.70;90.90
21255;DHT22;10785;50.674;17.954;2023-06-10T16:12:37;24.80;92.00
21255;DHT22;10785;50.674;17.954;2023-06-10T16:15:07;24.90;91.00
21255;DHT22;10785;50.674;17.954;2023-06-10T16:17:37;25.00;87.90
21255;DHT22;10785;50.674;17.954;2023-06-10T16:20:08;24.90;86.00
21255;DHT22;10785;50.674;17.954;2023-06-10T16:22:37;24.90;85.70
21255;DHT22;10785;50.674;17.954;2023-06-10T16:25:07;24.80;88.10
21255;DHT22;10785;50.674;17.954;2023-06-10T16:27:36;24.70;90.90
21255;DHT22;10785;50.674;17.954;2023-06-10T16:30:06;24.70;91.00
21255;DHT22;10785;50.674;17.954;2023-06-10T16:32:35;24.60;90.80
21255;DHT22;10785;50.674;17.954;2023-06-10T16:35:04;24.50;90.60
21255;DHT22;10785;50.674;17.954;2023-06-10T16:37:35;24.40;91.90
21255;DHT22;10785;50.674;17.954;2023-06-10T16:40:04;24.50;91.40
21255;DHT22;10785;50.674;17.954;2023-06-10T16:42:33;24.30;92.70
21255;DHT22;10785;50.674;17.954;2023-06-10T16:45:02;24.30;91.90
21255;DHT22;10785;50.674;17.954;2023-06-10T16:47:31;24.30;93.30
21255;DHT22;10785;50.674;17.954;2023-06-10T16:50:00;24.30;94.20
21255;DHT22;10785;50.674;17.954;2023-06-10T16:52:31;24.20;90.90
21255;DHT22;10785;50.674;17.954;2023-06-10T16:55:01;24.20;92.80
21255;DHT22;10785;50.674;17.954;2023-06-10T16:57:30;24.20;94.00
21255;DHT22;10785;50.674;17.954;2023-06-10T16:59:59;24.10;92.80
21255;DHT22;10785;50.674;17.954;2023-06-10T17:02:32;24.10;92.10
21255;DHT22;10785;50.674;17.954;2023-06-10T17:05:01;24.00;92.50
21255;DHT22;10785;50.674;17.954;2023-06-10T17:07:31;24.00;92.80
21255;DHT22;10785;50.674;17.954;2023-06-10T17:10:04;24.00;91.40
21255;DHT22;10785;50.674;17.954;2023-06-10T17:12:33;24.00;92.50